createdAt,value
2022-08-10T00:02:19.381Z,94.50
2022-08-10T00:04:49.801Z,94.00
2022-08-10T00:07:18.382Z,93.90
2022-08-10T00:09:50.993Z,93.80
2022-08-10T00:12:34.666Z,93.90
2022-08-10T00:15:52.762Z,94.10
2022-08-10T00:18:08.322Z,94.20
2022-08-10T00:20:36.661Z,94.00
2022-08-10T00:23:04.930Z,94.00
2022-08-10T00:25:34.696Z,94.20
2022-08-10T00:28:04.130Z,93.90
2022-08-10T00:30:36.822Z,94.20
2022-08-10T00:33:05.427Z,93.60
2022-08-10T00:35:37.854Z,94.30
2022-08-10T00:38:05.032Z,94.00
2022-08-10T00:40:40.959Z,94.10
2022-08-10T00:43:11.760Z,93.60
2022-08-10T00:45:40.102Z,93.70
2022-08-10T00:48:09.832Z,93.70
2022-08-10T00:50:42.078Z,93.90
2022-08-10T00:53:10.598Z,94.30
2022-08-10T00:57:12.302Z,94.30
2022-08-10T00:58:31.354Z,94.60
2022-08-10T01:01:01.988Z,94.80
2022-08-10T01:04:36.676Z,94.70
2022-08-10T01:06:33.862Z,94.80
2022-08-10T01:09:31.950Z,94.90
2022-08-10T01:12:40.761Z,95.00
2022-08-10T01:15:30.844Z,94.90
2022-08-10T01:18:26.338Z,95.30
2022-08-10T01:21:32.261Z,95.60
2022-08-10T01:24:38.097Z,95.30
2022-08-10T01:27:38.896Z,95.20
2022-08-10T01:30:15.367Z,95.80
2022-08-10T01:32:47.711Z,95.60
2022-08-10T01:35:25.321Z,95.50
2022-08-10T01:38:19.088Z,95.80
2022-08-10T01:40:52.157Z,96.00
2022-08-10T01:43:20.442Z,96.30
2022-08-10T01:45:53.066Z,96.30
2022-08-10T01:48:34.691Z,96.40
2022-08-10T01:51:23.496Z,96.70
2022-08-10T01:54:21.237Z,96.60
2022-08-10T01:56:52.576Z,96.80
2022-08-10T01:59:26.297Z,96.80
2022-08-10T02:01:57.576Z,96.70
2022-08-10T02:04:28.292Z,96.50
2022-08-10T02:06:57.766Z,96.60
2022-08-10T02:09:33.264Z,97.00
2022-08-10T02:12:07.597Z,97.10
2022-08-10T02:14:55.797Z,96.90
2022-08-10T02:18:00.568Z,96.50
2022-08-10T02:20:20.901Z,96.80
2022-08-10T02:23:04.771Z,96.80
2022-08-10T02:25:40.800Z,97.20
2022-08-10T02:28:27.512Z,97.40
2022-08-10T02:31:11.466Z,97.50
2022-08-10T02:33:56.842Z,97.50
2022-08-10T02:36:29.616Z,97.90
2022-08-10T02:39:00.962Z,98.00
2022-08-10T02:45:15.316Z,98.00
2022-08-10T02:45:24.705Z,98.10
2022-08-10T02:47:50.841Z,98.20
2022-08-10T02:50:35.151Z,98.70
2022-08-10T02:53:55.884Z,98.70
2022-08-10T02:56:22.841Z,98.70
2022-08-10T02:58:58.646Z,98.80
2022-08-10T03:01:32.628Z,99.00
2022-08-10T03:04:05.256Z,99.50
2022-08-10T03:06:43.705Z,99.80
2022-08-10T03:09:16.086Z,99.90
2022-08-10T03:12:35.897Z,99.90
2022-08-10T03:14:34.420Z,99.90
2022-08-10T03:17:02.825Z,99.90
2022-08-10T03:20:33.641Z,99.90
2022-08-10T03:22:19.997Z,99.90
2022-08-10T03:24:48.206Z,99.90
2022-08-10T03:27:17.087Z,99.90
2022-08-10T03:30:29.828Z,99.90
2022-08-10T03:32:34.801Z,99.90
2022-08-10T03:35:03.137Z,99.90
2022-08-10T03:37:30.499Z,99.90
2022-08-10T03:39:57.832Z,99.90
2022-08-10T03:42:28.903Z,99.90
2022-08-10T03:44:57.566Z,99.90
2022-08-10T03:47:27.126Z,99.90
2022-08-10T03:49:55.753Z,99.90
2022-08-10T03:52:23.763Z,99.90
2022-08-10T03:54:54.030Z,99.90
2022-08-10T03:57:22.176Z,99.90
2022-08-10T03:59:50.873Z,99.90
2022-08-10T04:02:45.594Z,99.90
2022-08-10T04:05:05.691Z,99.90
2022-08-10T04:07:33.716Z,99.90
2022-08-10T04:10:00.791Z,99.90
2022-08-10T04:12:28.075Z,99.90
2022-08-10T04:14:55.236Z,99.90
2022-08-10T04:17:59.296Z,99.90
2022-08-10T04:20:24.275Z,99.90
2022-08-10T04:22:54.608Z,99.90
2022-08-10T04:25:22.987Z,99.90
2022-08-10T04:27:52.601Z,99.90
2022-08-10T04:30:20.315Z,99.90
2022-08-10T04:32:51.751Z,99.90
2022-08-10T04:35:22.965Z,99.90
2022-08-10T04:37:51.356Z,99.90
2022-08-10T04:40:29.509Z,99.90
2022-08-10T04:43:12.695Z,99.40
2022-08-10T04:45:50.327Z,98.80
2022-08-10T04:48:43.695Z,98.10
2022-08-10T04:51:18.447Z,98.10
2022-08-10T04:54:05.634Z,97.10
2022-08-10T04:56:39.218Z,97.40
2022-08-10T04:59:08.605Z,96.60
2022-08-10T05:02:28.630Z,96.90
2022-08-10T05:04:36.054Z,97.40
2022-08-10T05:07:08.471Z,95.60
2022-08-10T05:10:03.488Z,95.00
2022-08-10T05:12:23.205Z,96.60
2022-08-10T05:14:52.215Z,95.70
2022-08-10T05:17:21.973Z,95.30
2022-08-10T05:20:05.034Z,94.50
2022-08-10T05:22:41.376Z,93.40
2022-08-10T05:25:14.884Z,93.10
2022-08-10T05:27:43.141Z,92.80
2022-08-10T05:30:13.844Z,92.80
2022-08-10T05:32:58.595Z,93.00
2022-08-10T05:35:28.437Z,92.90
2022-08-10T05:38:12.225Z,93.60
2022-08-10T05:40:47.074Z,93.70
2022-08-10T05:43:20.579Z,93.70
2022-08-10T05:46:18.594Z,93.00
2022-08-10T05:48:56.892Z,92.30
2022-08-10T05:51:25.898Z,93.20
2022-08-10T05:54:02.804Z,92.40
2022-08-10T05:56:54.908Z,92.90
2022-08-10T06:00:32.782Z,93.40
2022-08-10T06:02:44.193Z,93.60
2022-08-10T06:05:25.274Z,92.10
2022-08-10T06:08:00.683Z,92.70
2022-08-10T06:10:32.551Z,92.30
2022-08-10T06:13:26.717Z,92.10
2022-08-10T06:16:01.197Z,92.30
2022-08-10T06:18:29.212Z,92.00
2022-08-10T06:20:57.707Z,92.00
2022-08-10T06:23:28.440Z,91.90
2022-08-10T06:26:10.671Z,91.70
2022-08-10T06:29:03.020Z,91.80
2022-08-10T06:31:47.931Z,91.60
2022-08-10T06:34:54.888Z,91.50
2022-08-10T06:37:26.533Z,91.40
2022-08-10T06:39:54.161Z,91.60
2022-08-10T06:42:38.135Z,91.10
2022-08-10T06:45:17.913Z,91.20
2022-08-10T06:47:53.106Z,91.00
2022-08-10T06:50:56.446Z,91.00
2022-08-10T06:53:54.108Z,91.10
2022-08-10T06:56:36.861Z,90.70
2022-08-10T06:59:08.531Z,90.40
2022-08-10T07:01:53.185Z,90.60
2022-08-10T07:04:34.067Z,90.50
2022-08-10T07:07:05.877Z,90.00
2022-08-10T07:09:37.006Z,88.80
2022-08-10T07:12:09.159Z,87.70
2022-08-10T07:14:43.737Z,89.50
2022-08-10T07:17:17.494Z,88.90
2022-08-10T07:19:49.903Z,86.50
2022-08-10T07:23:22.801Z,86.20
2022-08-10T07:25:10.056Z,88.80
2022-08-10T07:27:58.361Z,89.20
2022-08-10T07:30:30.755Z,88.60
2022-08-10T07:33:00.175Z,87.20
2022-08-10T07:35:34.657Z,85.80
2022-08-10T07:38:06.632Z,86.60
2022-08-10T07:40:35.324Z,89.60
2022-08-10T07:43:03.456Z,89.00
2022-08-10T07:45:33.737Z,90.80
2022-08-10T07:48:25.985Z,90.30
2022-08-10T07:50:58.063Z,91.40
2022-08-10T07:53:28.136Z,90.40
2022-08-10T07:56:01.439Z,91.80
2022-08-10T07:58:46.152Z,92.10
2022-08-10T08:01:22.253Z,91.20
2022-08-10T08:04:05.347Z,89.00
2022-08-10T08:06:39.442Z,86.10
2022-08-10T08:09:06.879Z,87.50
2022-08-10T08:11:36.840Z,87.40
2022-08-10T08:14:06.884Z,89.50
2022-08-10T08:16:36.511Z,89.80
2022-08-10T08:19:26.752Z,89.60
2022-08-10T08:24:05.430Z,90.00
2022-08-10T08:24:41.816Z,89.90
2022-08-10T08:27:11.118Z,86.80
2022-08-10T08:29:42.136Z,89.40
2022-08-10T08:32:11.826Z,86.80
2022-08-10T08:34:41.967Z,90.00
2022-08-10T08:37:11.298Z,87.30
2022-08-10T08:39:38.987Z,88.00
2022-08-10T08:42:21.207Z,87.40
2022-08-10T08:45:19.130Z,88.80
2022-08-10T08:48:09.447Z,89.60
2022-08-10T08:51:08.382Z,87.00
2022-08-10T08:54:07.852Z,91.30
2022-08-10T08:57:01.926Z,90.30
2022-08-10T08:59:50.596Z,88.60
2022-08-10T09:02:34.773Z,85.10
2022-08-10T09:05:04.876Z,85.00
2022-08-10T09:08:02.334Z,83.70
2022-08-10T09:10:48.615Z,85.60
2022-08-10T09:13:27.197Z,86.20
2022-08-10T09:16:08.896Z,88.30
2022-08-10T09:18:41.762Z,86.60
2022-08-10T09:21:33.602Z,83.90
2022-08-10T09:24:20.454Z,81.60
2022-08-10T09:26:51.666Z,83.20
2022-08-10T09:29:27.607Z,84.50
2022-08-10T09:36:16.854Z,86.50
2022-08-10T09:36:22.103Z,88.00
2022-08-10T09:38:17.787Z,88.60
2022-08-10T09:41:07.756Z,85.20
2022-08-10T09:44:09.017Z,86.40
2022-08-10T09:46:42.700Z,83.90
2022-08-10T09:49:53.256Z,82.20
2022-08-10T09:52:26.832Z,81.90
2022-08-10T09:55:15.012Z,86.80
2022-08-10T10:02:00.481Z,78.90
2022-08-10T10:04:56.791Z,80.90
2022-08-10T10:07:29.791Z,82.30
2022-08-10T10:10:24.501Z,81.60
2022-08-10T10:13:05.063Z,81.60
2022-08-10T10:15:35.877Z,81.20
2022-08-10T10:18:03.777Z,82.10
2022-08-10T10:21:11.918Z,82.80
2022-08-10T10:24:43.313Z,79.50
2022-08-10T10:27:40.871Z,80.50
2022-08-10T10:30:12.454Z,80.70
2022-08-10T10:32:57.905Z,80.20
2022-08-10T10:35:25.339Z,81.60
2022-08-10T10:38:02.235Z,85.00
2022-08-10T10:41:10.193Z,83.40
2022-08-10T10:44:13.624Z,81.70
2022-08-10T10:46:51.679Z,79.50
2022-08-10T10:49:38.558Z,83.60
2022-08-10T10:52:14.345Z,81.70
2022-08-10T10:55:19.506Z,80.70
2022-08-10T10:58:25.327Z,82.40
2022-08-10T11:01:26.674Z,82.30
2022-08-10T11:04:18.682Z,82.70
2022-08-10T11:07:10.567Z,83.30
2022-08-10T11:10:04.966Z,84.60
2022-08-10T11:12:46.772Z,82.40
2022-08-10T11:15:42.672Z,83.20
2022-08-10T11:18:45.948Z,81.70
2022-08-10T11:21:34.708Z,82.70
2022-08-10T11:24:48.089Z,81.90
2022-08-10T11:27:33.431Z,80.20
2022-08-10T11:30:10.732Z,81.90
2022-08-10T11:33:06.820Z,80.90
2022-08-10T11:35:45.297Z,78.90
2022-08-10T11:38:42.809Z,79.50
2022-08-10T11:42:09.304Z,82.50
2022-08-10T11:44:48.782Z,84.10
2022-08-10T11:47:21.007Z,83.00
2022-08-10T11:50:04.276Z,81.10
2022-08-10T11:52:37.296Z,82.50
2022-08-10T11:55:13.353Z,83.80
2022-08-10T11:57:53.941Z,80.00
2022-08-10T12:00:23.872Z,81.10
2022-08-10T12:03:02.031Z,82.40
2022-08-10T12:05:52.150Z,81.60
2022-08-10T12:10:03.079Z,78.70
2022-08-10T12:11:24.026Z,79.40
2022-08-10T12:14:21.008Z,79.10
2022-08-10T12:17:10.034Z,79.20
2022-08-10T12:20:02.484Z,80.60
2022-08-10T12:23:12.381Z,79.20
2022-08-10T12:26:07.756Z,80.00
2022-08-10T12:28:52.208Z,78.70
2022-08-10T12:31:27.169Z,80.40
2022-08-10T12:34:06.714Z,78.00
2022-08-10T12:36:48.262Z,78.10
2022-08-10T12:39:31.286Z,79.50
2022-08-10T12:42:36.992Z,79.70
2022-08-10T12:45:16.343Z,80.30
2022-08-10T12:48:31.052Z,78.20
2022-08-10T12:51:17.547Z,78.50
2022-08-10T12:53:52.027Z,78.50
2022-08-10T12:56:30.428Z,78.10
2022-08-10T12:59:01.707Z,79.80
2022-08-10T13:02:06.295Z,78.40
2022-08-10T13:04:28.834Z,77.00
2022-08-10T13:06:59.488Z,77.10
2022-08-10T13:09:27.333Z,79.00
2022-08-10T13:12:37.209Z,81.80
2022-08-10T13:15:49.538Z,77.00
2022-08-10T13:18:34.382Z,79.60
2022-08-10T13:21:20.610Z,78.20
2022-08-10T13:23:59.622Z,78.70
2022-08-10T13:26:37.787Z,77.60
2022-08-10T13:29:28.532Z,75.20
2022-08-10T13:32:04.435Z,76.00
2022-08-10T13:34:45.313Z,76.90
2022-08-10T13:37:19.263Z,77.90
2022-08-10T13:39:59.163Z,77.70
2022-08-10T13:42:38.558Z,78.10
2022-08-10T13:45:10.495Z,76.60
2022-08-10T13:47:48.548Z,77.70
2022-08-10T13:50:34.562Z,79.40
2022-08-10T13:53:14.010Z,76.30
2022-08-10T13:56:05.539Z,75.90
2022-08-10T13:58:36.057Z,76.50
2022-08-10T14:01:15.453Z,75.10
2022-08-10T14:03:44.933Z,76.20
2022-08-10T14:06:16.713Z,77.00
2022-08-10T14:08:51.760Z,76.50
2022-08-10T14:11:20.536Z,77.10
2022-08-10T14:13:56.473Z,76.00
2022-08-10T14:16:24.771Z,77.50
2022-08-10T14:18:55.263Z,75.00
2022-08-10T14:21:22.979Z,76.50
2022-08-10T14:23:53.387Z,75.80
2022-08-10T14:26:28.410Z,76.10
2022-08-10T14:29:09.774Z,77.40
2022-08-10T14:32:01.380Z,77.00
2022-08-10T14:36:15.279Z,75.30
2022-08-10T14:37:38.165Z,75.90
2022-08-10T14:40:14.780Z,77.50
2022-08-10T14:42:52.988Z,75.50
2022-08-10T14:45:24.700Z,74.40
2022-08-10T14:48:00.966Z,74.70
2022-08-10T14:50:32.364Z,76.20
2022-08-10T14:53:10.265Z,75.20
2022-08-10T14:55:59.027Z,75.40
2022-08-10T14:59:05.285Z,75.50
2022-08-10T15:02:01.289Z,76.00
2022-08-10T15:04:26.749Z,76.40
2022-08-10T15:07:00.957Z,75.60
2022-08-10T15:10:00.167Z,76.80
2022-08-10T15:12:34.468Z,76.40
2022-08-10T15:15:05.704Z,74.30
2022-08-10T15:17:39.932Z,74.80
2022-08-10T15:20:21.036Z,73.20
2022-08-10T15:22:52.098Z,73.80
2022-08-10T15:25:24.443Z,78.20
2022-08-10T15:28:13.685Z,73.10
2022-08-10T15:30:52.638Z,73.20
2022-08-10T15:34:02.178Z,73.50
2022-08-10T15:37:36.605Z,71.90
2022-08-10T15:40:24.023Z,71.50
2022-08-10T15:43:24.688Z,72.20
2022-08-10T15:45:59.538Z,72.10
2022-08-10T15:48:30.898Z,70.60
2022-08-10T15:51:10.824Z,70.90
2022-08-10T15:53:49.113Z,70.70
2022-08-10T15:56:42.592Z,69.10
2022-08-10T15:59:35.010Z,71.20
2022-08-10T16:02:15.603Z,70.10
2022-08-10T16:04:50.005Z,70.00
2022-08-10T16:07:49.014Z,71.40
2022-08-10T16:10:26.186Z,69.30
2022-08-10T16:13:50.173Z,70.40
2022-08-10T16:15:56.868Z,70.50
2022-08-10T16:18:31.047Z,68.90
2022-08-10T16:21:04.142Z,69.80
2022-08-10T16:23:37.897Z,70.80
2022-08-10T16:26:15.332Z,70.70
2022-08-10T16:28:55.238Z,69.80
2022-08-10T16:31:25.830Z,69.70
2022-08-10T16:33:56.923Z,70.10
2022-08-10T16:37:07.589Z,70.60
2022-08-10T16:39:58.389Z,70.60
2022-08-10T16:42:32.902Z,71.90
2022-08-10T16:45:13.443Z,71.20
2022-08-10T16:47:49.902Z,70.70
2022-08-10T16:50:41.801Z,71.60
2022-08-10T16:53:16.674Z,70.30
2022-08-10T16:55:52.783Z,69.50
2022-08-10T16:58:25.609Z,70.80
2022-08-10T17:00:57.597Z,71.10
2022-08-10T17:04:07.862Z,70.60
2022-08-10T17:06:57.229Z,70.90
2022-08-10T17:09:33.287Z,70.20
2022-08-10T17:12:10.635Z,70.40
2022-08-10T17:14:40.344Z,71.10
2022-08-10T17:17:14.061Z,71.00
2022-08-10T17:19:45.388Z,70.30
2022-08-10T17:22:21.776Z,70.40
2022-08-10T17:24:58.319Z,70.80
2022-08-10T17:28:04.882Z,71.70
2022-08-10T17:30:34.113Z,72.10
2022-08-10T17:33:11.304Z,71.70
2022-08-10T17:35:40.438Z,71.40
2022-08-10T17:38:19.629Z,71.10
2022-08-10T17:41:12.604Z,71.60
2022-08-10T17:44:00.976Z,71.90
2022-08-10T17:46:44.224Z,72.60
2022-08-10T17:49:14.247Z,71.60
2022-08-10T17:51:43.275Z,71.50
2022-08-10T17:54:39.505Z,71.60
2022-08-10T17:57:19.000Z,71.60
2022-08-10T17:59:48.307Z,71.50
2022-08-10T18:02:20.113Z,71.50
2022-08-10T18:04:59.020Z,72.20
2022-08-10T18:07:35.895Z,72.20
2022-08-10T18:10:05.990Z,72.30
2022-08-10T18:12:44.047Z,72.50
2022-08-10T18:15:15.396Z,73.00
2022-08-10T18:17:52.490Z,73.30
2022-08-10T18:20:28.155Z,72.50
2022-08-10T18:22:57.561Z,73.10
2022-08-10T18:25:30.483Z,72.50
2022-08-10T18:28:04.012Z,73.20
2022-08-10T18:30:49.133Z,72.80
2022-08-10T18:33:21.010Z,73.10
2022-08-10T18:35:50.231Z,73.50
2022-08-10T18:38:19.259Z,73.20
2022-08-10T18:40:59.623Z,73.50
2022-08-10T18:44:07.591Z,73.50
2022-08-10T18:46:30.710Z,73.80
2022-08-10T18:49:40.322Z,74.00
2022-08-10T18:52:15.166Z,74.90
2022-08-10T18:54:47.168Z,75.00
2022-08-10T18:57:41.876Z,75.60
2022-08-10T19:00:13.992Z,76.00
2022-08-10T19:03:01.402Z,76.60
2022-08-10T19:05:34.557Z,76.50
2022-08-10T19:08:33.029Z,77.00
2022-08-10T19:11:09.202Z,77.40
2022-08-10T19:13:54.743Z,78.00
2022-08-10T19:16:36.591Z,79.10
2022-08-10T19:19:37.328Z,81.20
2022-08-10T19:22:09.074Z,81.70
2022-08-10T19:24:50.162Z,80.90
2022-08-10T19:27:42.528Z,80.90
2022-08-10T19:30:13.778Z,80.20
2022-08-10T19:33:05.752Z,80.00
2022-08-10T19:36:04.489Z,80.10
2022-08-10T19:39:08.940Z,79.20
2022-08-10T19:41:44.610Z,80.00
2022-08-10T19:44:52.312Z,80.20
2022-08-10T19:47:52.568Z,80.20
2022-08-10T19:50:25.124Z,80.30
2022-08-10T19:53:10.894Z,80.00
2022-08-10T19:56:18.411Z,80.10
2022-08-10T19:59:08.010Z,79.80
2022-08-10T20:01:52.993Z,79.70
2022-08-10T20:04:42.073Z,79.60
2022-08-10T20:07:19.298Z,81.70
2022-08-10T20:10:04.119Z,82.30
2022-08-10T20:13:01.061Z,83.80
2022-08-10T20:15:47.576Z,85.40
2022-08-10T20:18:35.484Z,84.80
2022-08-10T20:21:12.623Z,85.00
2022-08-10T20:23:56.683Z,85.40
2022-08-10T20:26:28.659Z,85.00
2022-08-10T20:29:02.039Z,84.70
2022-08-10T20:31:54.915Z,85.20
2022-08-10T20:34:25.600Z,85.00
2022-08-10T20:37:02.730Z,85.30
2022-08-10T20:39:50.236Z,85.50
2022-08-10T20:42:28.023Z,85.20
2022-08-10T20:45:04.681Z,84.90
2022-08-10T20:47:37.602Z,84.40
2022-08-10T20:50:53.156Z,84.60
2022-08-10T20:53:25.864Z,84.00
2022-08-10T20:56:21.630Z,84.30
2022-08-10T20:59:00.578Z,83.60
2022-08-10T21:02:06.598Z,83.40
2022-08-10T21:05:09.030Z,84.00
2022-08-10T21:08:01.154Z,83.40
2022-08-10T21:10:47.435Z,83.50
2022-08-10T21:13:23.504Z,83.60
2022-08-10T21:16:08.578Z,83.10
2022-08-10T21:19:10.382Z,82.80
2022-08-10T21:25:03.146Z,83.50
2022-08-10T21:25:41.673Z,83.50
2022-08-10T21:28:08.819Z,83.50
2022-08-10T21:31:13.854Z,83.60
2022-08-10T21:34:12.934Z,84.10
2022-08-10T21:36:58.920Z,84.10
2022-08-10T21:40:03.609Z,84.00
2022-08-10T21:43:49.015Z,84.50
2022-08-10T21:48:04.855Z,84.60
2022-08-10T21:50:30.295Z,85.90
2022-08-10T21:53:53.280Z,86.90
2022-08-10T21:57:08.884Z,87.80
2022-08-10T22:00:35.872Z,87.40
2022-08-10T22:03:39.359Z,86.80
2022-08-10T22:06:33.526Z,87.10
2022-08-10T22:09:33.836Z,88.10
2022-08-10T22:12:40.215Z,87.40
2022-08-10T22:16:05.602Z,88.10
2022-08-10T22:19:01.899Z,88.50
2022-08-10T22:25:52.326Z,89.10
2022-08-10T22:28:42.359Z,88.80
2022-08-10T22:31:26.091Z,88.80
2022-08-10T22:32:03.104Z,88.70
2022-08-10T22:35:18.183Z,88.70
2022-08-10T22:38:46.174Z,89.00
2022-08-10T22:42:04.838Z,88.80
2022-08-10T22:44:56.043Z,89.30
2022-08-10T22:47:47.108Z,89.50
2022-08-10T22:50:24.766Z,88.80
2022-08-10T22:53:10.773Z,88.50
2022-08-10T22:56:07.324Z,88.60
2022-08-10T22:58:42.338Z,89.00
2022-08-10T23:02:07.268Z,88.90
2022-08-10T23:05:14.162Z,89.60
2022-08-10T23:08:05.734Z,90.00
2022-08-10T23:10:42.280Z,90.00
2022-08-10T23:13:35.654Z,89.80
2022-08-10T23:16:47.211Z,89.90
2022-08-10T23:19:37.253Z,89.40
2022-08-10T23:22:15.562Z,90.00
2022-08-10T23:25:11.919Z,90.00
2022-08-10T23:27:50.033Z,89.40
2022-08-10T23:30:47.952Z,90.00
2022-08-10T23:33:38.202Z,90.20
2022-08-10T23:36:33.859Z,90.20
2022-08-10T23:39:26.715Z,90.50
2022-08-10T23:42:11.194Z,90.60
2022-08-10T23:44:45.764Z,90.80
2022-08-10T23:47:31.659Z,90.90
2022-08-10T23:50:12.439Z,91.00
2022-08-10T23:52:53.559Z,91.50
2022-08-10T23:55:49.162Z,91.90
2022-08-10T23:58:31.725Z,91.90
